Scottish Airport Reports

Civil airfields updated at H+20 and H+50
RAF airfields updated at H+50 only

EGPD - Aberdeen
Distance from station: NNE 19mi, 31km
Updated: 12/08/2020 17:50
Clear
Clear
 Wind from varies
Wind: varies 2 mph , 4 km/h
Temperature: 20°C
Dew Point: 16°C
Humidity: 78%
Barometer: 1016 hPa
Clouds: Clear
Visibility: 6 miles , 10 km
2020/08/12 16:50 EGPD 121650Z AUTO VRB02KT 9999 NCD 20/16 Q1016 NOSIG
EGPN - Dundee
Distance from station: SW 41mi, 66km
Updated: 12/08/2020 17:50
Few Clouds
Few Clouds
 Wind from E
Wind: E 6 mph , 9 km/h
Temperature: 21°C
Dew Point: 17°C
Humidity: 78%
Barometer: 1016 hPa
Clouds: Few Clouds
Visibility: 6 miles , 10 km
Cloud details: Few Clouds 2000 ft
2020/08/12 16:50 EGPN 121650Z 10005KT 9999 FEW020 21/17 Q1016
 
EGQS - RAF Lossiemouth
Distance from station: NNW 63mi, 102km
Updated: 12/08/2020 17:50
Few Clouds
Few Clouds
 Wind from ENE
Wind: ENE 9 mph , 15 km/h
Temperature: 19°C
Dew Point: 15°C
Humidity: 78%
Barometer: 1017 hPa
Clouds: Few Clouds
Visibility: 6 miles , 10 km
Cloud details: Few Clouds 3000 ft
2020/08/12 16:50 EGQS 121650Z 07008KT 9999 FEW030 19/15 Q1017 NOSIG RMK BLU BLU
EGPE - Inverness
Distance from station: WNW 73mi, 117km
Updated: 12/08/2020 17:50
Few Clouds
Few Clouds
 Wind from NE
Wind: NE 7 mph , 11 km/h
Temperature: 21°C
Dew Point: 17°C
Humidity: 78%
Barometer: 1017 hPa
Clouds: Few Clouds
Visibility: 6 miles , 10 km
Cloud details: Few Clouds 2500 ft
2020/08/12 16:50 EGPE 121650Z 04006KT 9999 FEW025TCU 21/17 Q1017
 
EGPH - Edinburgh
Distance from station: SSW 77mi, 125km
Updated: 12/08/2020 17:50
Clear
Clear
 Wind from NE
Wind: NE 9 mph , 15 km/h
Temperature: 21°C
Dew Point: 16°C
Humidity: 73%
Barometer: 1016 hPa
Summary: Clear
Visibility: greater than 7 miles , 10 km
2020/08/12 16:50 EGPH 121650Z 05008KT CAVOK 21/16 Q1016
EGPC - Wick
Distance from station: NNW 107mi, 172km
Updated: 12/08/2020 17:50
Few Clouds
Few Clouds
 Wind from NE
Wind: NE 5 mph , 7 km/h
Temperature: 18°C
Dew Point: 16°C
Humidity: 88%
Barometer: 1018 hPa
Clouds: Few Clouds
Visibility: 6 miles , 10 km
Cloud details: Few Clouds 400 ft
2020/08/12 16:50 EGPC 121650Z 04004KT 9999 FEW004 18/16 Q1018
 
EGPF - Glasgow
Distance from station: SW 107mi, 172km
Updated: 12/08/2020 17:50
Clear
Clear
 Wind from NE
Wind: NE 9 mph , 15 km/h
Temperature: 25°C
Dew Point: 18°C
Humidity: 65%
Barometer: 1015 hPa
Clouds: Clear
Visibility: 6 miles , 10 km
2020/08/12 16:50 EGPF 121650Z AUTO 05008KT 9999 NCD 25/18 Q1015
EGPK - Prestwick
Distance from station: SW 130mi, 209km
Updated: 12/08/2020 17:50
Partly cloudy
Partly cloudy
 Wind from WSW
Wind: WSW 7 mph , 11 km/h
Temperature: 21°C
Dew Point: 17°C
Humidity: 78%
Barometer: 1016 hPa
Clouds: Partly cloudy
Visibility: 6 miles , 10 km
Cloud details: Few Clouds 1500 ft
Partly cloudy 2900 ft
2020/08/12 16:50 EGPK 121650Z 25006KT 9999 FEW015 SCT029 21/17 Q1016
 
EGPA - Kirkwall, Orkney
Distance from station: N 140mi, 225km
Updated: 12/08/2020 17:50
Mostly cloudy
Mostly cloudy
 Wind from N
Wind: N 3 mph , 6 km/h
Temperature: 17°C
Dew Point: 16°C
Humidity: 94%
Barometer: 1018 hPa
Clouds: Mostly cloudy
Visibility: 4 miles , 7 km
Cloud details: Partly cloudy 600 ft
Mostly cloudy 3300 ft
2020/08/12 16:50 EGPA 121650Z 01003KT 7000 SCT006 BKN033 17/16 Q1018
EGPO - Stornoway, Outer Hebrides
Distance from station: WNW 169mi, 273km
Updated: 12/08/2020 17:50
Overcast
Overcast
 Wind from NW
Wind: NW 9 mph , 15 km/h
Temperature: 15°C
Dew Point: 14°C
Humidity: 94%
Barometer: 1019 hPa
Clouds: Overcast
Visibility: 6 miles , 10 km
Cloud details: Few Clouds 300 ft
Overcast 700 ft
2020/08/12 16:50 EGPO 121650Z 32008KT 9999 FEW003 OVC007 15/14 Q1019
 
EGPI - Islay, Inner Hebrides
Distance from station: WSW 172mi, 276km
Updated: 12/08/2020 17:50
Few Clouds
Few Clouds
 Wind from NNW
Wind: NNW 13 mph , 20 km/h
Temperature: 17°C
Dew Point: 15°C
Humidity: 88%
Barometer: 1017 hPa
Clouds: Few Clouds
Visibility: 6 miles , 10 km
Cloud details: Few Clouds 1100 ft
2020/08/12 16:50 EGPI 121650Z AUTO 34011KT 310V010 9999 FEW011/// 17/15 Q1017
EGPU - Tiree, Inner Hebrides
Distance from station: W 172mi, 276km
Updated: 12/08/2020 17:50
Partly cloudy
Partly cloudy
 Wind from N
Wind: N 16 mph , 26 km/h
Temperature: 16°C
Dew Point: 14°C
Humidity: 88%
Barometer: 1017 hPa
Clouds: Partly cloudy
Visibility: 6 miles , 10 km
Cloud details: Partly cloudy 2800 ft
2020/08/12 16:50 EGPU 121650Z 35014KT 9999 SCT028 16/14 Q1017
 
EGPB - Sumburgh, Shetland
Distance from station: NNE 208mi, 332km
Updated: 12/08/2020 17:50
Mostly cloudy
Mostly cloudy
 Wind from varies
Wind: varies 3 mph , 6 km/h
Temperature: 15°C
Dew Point: 14°C
Humidity: 94%
Barometer: 1018 hPa
Clouds: Mostly cloudy
Visibility: 6 miles , 9 km
Cloud details: Few Clouds 400 ft
Mostly cloudy 3600 ft
2020/08/12 16:50 EGPB 121650Z VRB03KT 9000 FEW004 BKN036 15/14 Q1018 TEMPO 4000 BR
-->